Time;durP1;ratioP1;P1;durP2;ratioP2;P2;SDS_P1;SDS_P2;PMS_P1;PMS_P2;Temp;Humidity;BMP_temperature;BMP_pressure;BME280_temperature;BME280_humidity;BME280_pressure;Samples;Min_cycle;Max_cycle;Signal;HPM_P1;HPM_P2
2022/05/20 00:02:20;;;;;;;11.63;6.03;;;;;;;-144.78;100.00;64918.72;4913580;28;20054;-67
2022/05/20 00:05:44;;;;;;;11.80;6.25;;;;;;;-144.78;100.00;64918.72;4915256;28;20454;-67
2022/05/20 00:09:08;;;;;;;18.70;6.85;;;;;;;-144.78;100.00;64918.72;4914225;28;20054;-67
2022/05/20 00:12:32;;;;;;;11.50;6.13;;;;;;;-144.78;100.00;64918.72;4913242;29;20063;-67
2022/05/20 00:15:57;;;;;;;10.05;7.05;;;;;;;-144.78;100.00;64918.72;4953764;28;20028;-68
2022/05/20 00:19:21;;;;;;;10.75;6.30;;;;;;;-144.78;100.00;64918.72;4913057;28;20028;-66
2022/05/20 00:22:45;;;;;;;9.23;6.13;;;;;;;-144.78;100.00;64918.72;4946831;28;20028;-67
2022/05/20 00:26:10;;;;;;;8.93;6.53;;;;;;;-144.78;100.00;64918.72;4913920;28;20099;-67
2022/05/20 00:29:33;;;;;;;15.10;6.30;;;;;;;-144.78;100.00;64918.72;4913991;29;20027;-67
2022/05/20 00:32:57;;;;;;;9.80;6.75;;;;;;;-144.78;100.00;64918.72;4903468;28;20032;-66
2022/05/20 00:36:21;;;;;;;12.73;7.40;;;;;;;-144.78;100.00;64918.72;4914255;28;20064;-68
2022/05/20 00:39:45;;;;;;;12.77;5.88;;;;;;;-144.78;100.00;64918.72;4907649;28;20390;-67
2022/05/20 00:43:26;;;;;;;10.40;5.97;;;;;;;-144.78;100.00;64918.72;4919582;28;20142;-68
2022/05/20 00:46:52;;;;;;;10.35;6.05;;;;;;;-144.78;100.00;64918.72;4916140;28;20039;-67
2022/05/20 00:50:16;;;;;;;8.02;5.90;;;;;;;-144.78;100.00;64918.72;4919178;28;20568;-67
2022/05/20 00:53:52;;;;;;;9.77;6.47;;;;;;;-144.78;100.00;64918.72;4957176;28;20551;-67
2022/05/20 00:57:22;;;;;;;8.80;5.90;;;;;;;-144.78;100.00;64918.72;4918945;28;20035;-67
2022/05/20 01:00:54;;;;;;;15.13;7.57;;;;;;;-144.78;100.00;64918.72;4903307;28;20102;-67
2022/05/20 01:04:21;;;;;;;9.10;6.50;;;;;;;-144.78;100.00;64918.72;4916029;28;20040;-67
2022/05/20 01:07:45;;;;;;;13.52;7.57;;;;;;;-144.78;100.00;64918.72;4912593;29;20039;-66
2022/05/20 01:11:09;;;;;;;17.15;6.68;;;;;;;-144.78;100.00;64918.72;4918006;28;20397;-67
2022/05/20 01:14:33;;;;;;;9.75;6.38;;;;;;;-144.78;100.00;64918.72;4912417;28;20054;-67
2022/05/20 01:17:58;;;;;;;10.40;6.57;;;;;;;-144.78;100.00;64918.72;4911700;28;20032;-67
2022/05/20 01:21:24;;;;;;;10.15;6.80;;;;;;;-144.78;100.00;64918.72;4925647;28;20083;-67
2022/05/20 01:24:48;;;;;;;15.35;7.55;;;;;;;-144.78;100.00;64918.72;4913012;28;20459;-66
2022/05/20 01:28:11;;;;;;;17.02;7.68;;;;;;;-144.78;100.00;64918.72;4909928;28;20036;-67
2022/05/20 01:31:37;;;;;;;12.13;7.57;;;;;;;-144.78;100.00;64918.72;4908079;28;20032;-67
2022/05/20 01:35:02;;;;;;;12.30;7.15;;;;;;;-144.78;100.00;64918.72;4993424;28;20066;-67
2022/05/20 01:38:26;;;;;;;13.65;7.63;;;;;;;-144.78;100.00;64918.72;4918080;28;20024;-66
2022/05/20 01:41:57;;;;;;;12.00;7.13;;;;;;;-144.78;100.00;64918.72;4918297;28;20082;-66
2022/05/20 01:45:28;;;;;;;14.45;7.55;;;;;;;-144.78;100.00;64918.72;4929919;28;20028;-67
2022/05/20 01:48:55;;;;;;;11.73;7.40;;;;;;;-144.78;100.00;64918.72;4940920;28;20119;-66
2022/05/20 01:52:41;;;;;;;11.27;6.85;;;;;;;-144.78;100.00;64918.72;4925022;28;20032;-67
2022/05/20 01:56:17;;;;;;;12.82;7.43;;;;;;;-144.78;100.00;64918.72;4910929;28;20389;-67
2022/05/20 02:00:13;;;;;;;12.32;8.10;;;;;;;-144.78;100.00;64918.72;4941693;28;20022;-66
2022/05/20 02:03:45;;;;;;;14.05;7.00;;;;;;;-144.78;100.00;64918.72;4911003;28;20039;-68
2022/05/20 02:07:23;;;;;;;14.13;6.15;;;;;;;-144.78;100.00;64918.72;4945404;28;20029;-68
2022/05/20 02:10:59;;;;;;;10.77;7.15;;;;;;;-144.78;100.00;64918.72;4923718;28;20034;-67
2022/05/20 02:14:42;;;;;;;10.25;6.60;;;;;;;-144.78;100.00;64918.72;4910670;28;20048;-69
2022/05/20 02:18:11;;;;;;;12.75;6.07;;;;;;;-144.78;100.00;64918.72;4909041;29;20066;-68
2022/05/20 02:21:36;;;;;;;;;;;;;;;-144.78;100.00;64918.72;4924357;28;20019;-69
2022/05/20 02:25:05;;;;;;;16.02;6.95;;;;;;;-144.78;100.00;64918.72;4912740;29;19911;-68
2022/05/20 02:28:33;;;;;;;14.20;6.60;;;;;;;-144.78;100.00;64918.72;4911744;28;20059;-68
2022/05/20 02:32:04;;;;;;;12.02;6.28;;;;;;;-144.78;100.00;64918.72;4934307;28;20030;-69
2022/05/20 02:35:28;;;;;;;12.13;6.65;;;;;;;-144.78;100.00;64918.72;4915864;28;20036;-69
2022/05/20 02:38:52;;;;;;;19.15;6.80;;;;;;;-144.78;100.00;64918.72;4954882;28;20508;-68
2022/05/20 02:42:16;;;;;;;8.80;6.60;;;;;;;-144.78;100.00;64918.72;4939800;28;20075;-68
2022/05/20 02:45:41;;;;;;;8.90;5.97;;;;;;;-144.78;100.00;64918.72;4918530;28;20074;-68
2022/05/20 02:49:05;;;;;;;11.57;6.20;;;;;;;-144.78;100.00;64918.72;4915418;29;20040;-68
2022/05/20 02:52:29;;;;;;;11.85;6.35;;;;;;;-144.78;100.00;64918.72;4913576;28;20119;-68
2022/05/20 02:55:53;;;;;;;9.98;6.15;;;;;;;-144.78;100.00;64918.72;4914369;28;20046;-68
2022/05/20 03:06:42;;;;;;;6.85;5.40;;;;;;;-144.78;100.00;64918.72;4931238;28;20089;-68
2022/05/20 03:10:07;;;;;;;7.68;5.13;;;;;;;-144.78;100.00;64918.72;4919461;28;20114;-68
2022/05/20 03:13:31;;;;;;;8.93;5.55;;;;;;;-144.78;100.00;64918.72;4907086;28;20032;-68
2022/05/20 03:16:58;;;;;;;8.25;6.03;;;;;;;-144.78;100.00;64918.72;4909790;28;20107;-68
2022/05/20 03:20:22;;;;;;;7.78;5.50;;;;;;;-144.78;100.00;64918.72;4919165;28;20042;-68
2022/05/20 03:23:46;;;;;;;8.07;6.15;;;;;;;-144.78;100.00;64918.72;4913294;28;20056;-68
2022/05/20 03:27:10;;;;;;;9.95;6.55;;;;;;;-144.78;100.00;64918.72;4956659;28;20029;-68
2022/05/20 03:30:34;;;;;;;9.85;5.93;;;;;;;-144.78;100.00;64918.72;4913274;28;20107;-68
2022/05/20 03:34:05;;;;;;;10.77;5.68;;;;;;;-144.78;100.00;64918.72;4920041;28;20060;-68
2022/05/20 03:37:28;;;;;;;7.88;5.97;;;;;;;-144.78;100.00;64918.72;4919632;28;20389;-66
2022/05/20 03:40:52;;;;;;;11.98;6.00;;;;;;;-144.78;100.00;64918.72;4918514;28;20031;-66
2022/05/20 03:44:17;;;;;;;8.95;5.40;;;;;;;-144.78;100.00;64918.72;4914693;28;20027;-66
2022/05/20 03:47:41;;;;;;;8.48;4.85;;;;;;;-144.78;100.00;64918.72;4976568;28;20032;-66
2022/05/20 03:51:12;;;;;;;11.23;6.13;;;;;;;-144.78;100.00;64918.72;4913981;28;20437;-66
2022/05/20 03:54:37;;;;;;;8.38;5.43;;;;;;;-144.78;100.00;64918.72;4948399;28;20032;-66
2022/05/20 03:58:01;;;;;;;9.52;5.40;;;;;;;-144.78;100.00;64918.72;4947016;28;20028;-69
2022/05/20 04:05:09;;;;;;;9.60;5.65;;;;;;;-144.78;100.00;64918.72;4930704;28;20043;-66
2022/05/20 04:08:33;;;;;;;9.68;5.40;;;;;;;-144.78;100.00;64918.72;4884028;28;20965;-71
2022/05/20 04:11:58;;;;;;;11.32;5.82;;;;;;;-144.78;100.00;64918.72;4910850;28;20478;-73
2022/05/20 04:15:24;;;;;;;11.57;6.00;;;;;;;-144.78;100.00;64918.72;4913934;28;20086;-69
2022/05/20 04:18:48;;;;;;;7.55;5.53;;;;;;;-144.78;100.00;64918.72;4925543;28;20101;-71
2022/05/20 04:22:15;;;;;;;12.82;5.68;;;;;;;-144.78;100.00;64918.72;4954876;28;20022;-70
2022/05/20 04:25:38;;;;;;;6.93;4.57;;;;;;;-144.78;100.00;64918.72;4910040;28;20035;-70
2022/05/20 04:29:02;;;;;;;7.22;4.90;;;;;;;-144.78;100.00;64918.72;4913925;28;20490;-69
2022/05/20 04:32:26;;;;;;;8.38;5.28;;;;;;;-144.78;100.00;64918.72;4919619;28;20151;-72
2022/05/20 04:35:50;;;;;;;13.13;6.45;;;;;;;-144.78;100.00;64918.72;4926867;28;20394;-69
2022/05/20 04:39:15;;;;;;;11.48;5.47;;;;;;;-144.78;100.00;64918.72;4995418;28;20020;-71
2022/05/20 04:50:05;;;;;;;6.15;4.60;;;;;;;-144.78;100.00;64918.72;4913925;28;20107;-70
2022/05/20 04:57:18;;;;;;;7.93;4.70;;;;;;;-144.78;100.00;64918.72;4915973;28;20484;-69
2022/05/20 05:00:42;;;;;;;7.30;4.60;;;;;;;-144.78;100.00;64918.72;4941258;28;20032;-70
2022/05/20 05:04:06;;;;;;;9.93;5.07;;;;;;;-144.78;100.00;64918.72;4921541;28;20028;-73
2022/05/20 05:07:30;;;;;;;7.65;4.68;;;;;;;-144.78;100.00;64918.72;4919157;28;20111;-72
2022/05/20 05:10:54;;;;;;;9.55;4.55;;;;;;;-144.78;100.00;64918.72;4918144;28;20041;-71
2022/05/20 05:14:19;;;;;;;8.30;4.20;;;;;;;-144.78;100.00;64918.72;4919912;28;20032;-66
2022/05/20 05:21:26;;;;;;;5.05;4.00;;;;;;;-144.78;100.00;64918.72;4947640;28;20074;-66
2022/05/20 05:24:50;;;;;;;6.68;3.83;;;;;;;-144.78;100.00;64918.72;4958904;28;20405;-72
2022/05/20 05:28:14;;;;;;;5.55;3.58;;;;;;;-144.78;100.00;64918.72;4952759;28;20494;-68
2022/05/20 05:31:38;;;;;;;11.32;4.15;;;;;;;-144.78;100.00;64918.72;4923895;28;20028;-63
2022/05/20 05:35:03;;;;;;;9.93;3.90;;;;;;;-144.78;100.00;64918.72;4994970;28;20051;-66
2022/05/20 05:38:26;;;;;;;10.02;3.95;;;;;;;-144.78;100.00;64918.72;4986320;23;20047;-66
2022/05/20 05:41:51;;;;;;;10.38;4.00;;;;;;;-144.78;100.00;64918.72;4932305;28;20056;-63
2022/05/20 05:45:16;;;;;;;6.35;3.72;;;;;;;-144.78;100.00;64918.72;4957486;28;20063;-66
2022/05/20 05:48:40;;;;;;;6.45;3.47;;;;;;;-144.78;100.00;64918.72;4927241;28;20034;-66
2022/05/20 05:52:04;;;;;;;7.57;4.47;;;;;;;-144.78;100.00;64918.72;4925745;28;20062;-67
2022/05/20 05:55:28;;;;;;;8.02;3.55;;;;;;;-144.78;100.00;64918.72;4910931;28;20028;-66
2022/05/20 05:58:52;;;;;;;4.97;3.28;;;;;;;-144.78;100.00;64918.72;4929200;28;20033;-66
2022/05/20 06:02:16;;;;;;;8.68;3.65;;;;;;;-144.78;100.00;64918.72;4926781;28;20475;-64
2022/05/20 06:05:40;;;;;;;7.60;3.55;;;;;;;-144.78;100.00;64918.72;4936188;28;20038;-68
2022/05/20 06:09:04;;;;;;;7.15;3.75;;;;;;;-144.78;100.00;64918.72;4912454;29;20027;-67
2022/05/20 06:12:28;;;;;;;8.88;3.92;;;;;;;-144.78;100.00;64918.72;4929208;28;20036;-68
2022/05/20 06:15:52;;;;;;;7.95;3.60;;;;;;;-144.78;100.00;64918.72;4945981;28;20042;-61
2022/05/20 06:19:16;;;;;;;4.93;3.42;;;;;;;-144.78;100.00;64918.72;4918927;28;20041;-66
2022/05/20 06:22:41;;;;;;;4.13;3.03;;;;;;;-144.78;100.00;64918.72;4944619;28;20039;-65
2022/05/20 06:26:05;;;;;;;11.35;3.05;;;;;;;-144.78;100.00;64918.72;4919113;28;20032;-67
2022/05/20 06:29:29;;;;;;;10.68;2.90;;;;;;;-144.78;100.00;64918.72;4913311;28;20028;-64
2022/05/20 06:32:53;;;;;;;7.57;3.20;;;;;;;-144.78;100.00;64918.72;4922605;28;20389;-64
2022/05/20 06:39:59;;;;;;;7.45;2.90;;;;;;;-144.78;100.00;64918.72;4912043;28;20075;-64
2022/05/20 06:43:23;;;;;;;5.57;3.33;;;;;;;-144.78;100.00;64918.72;4989503;28;20039;-65
2022/05/20 06:46:48;;;;;;;10.35;3.10;;;;;;;-144.78;100.00;64918.72;4914212;28;20032;-67
2022/05/20 06:50:13;;;;;;;6.75;3.00;;;;;;;-144.78;100.00;64918.72;4939969;28;20020;-66
2022/05/20 06:53:36;;;;;;;5.43;3.28;;;;;;;-144.78;100.00;64918.72;4915952;28;20040;-66
2022/05/20 06:57:01;;;;;;;6.25;2.83;;;;;;;-144.78;100.00;64918.72;4922590;28;20059;-66
2022/05/20 07:00:25;;;;;;;4.25;3.08;;;;;;;-144.78;100.00;64918.72;4921000;28;20028;-65
2022/05/20 07:03:49;;;;;;;8.38;3.20;;;;;;;-144.78;100.00;64918.72;4911484;28;20032;-66
2022/05/20 07:07:14;;;;;;;4.45;2.85;;;;;;;-144.78;100.00;64918.72;4909260;28;20042;-66
2022/05/20 07:10:39;;;;;;;6.72;3.25;;;;;;;-144.78;100.00;64918.72;4912060;28;20028;-67
2022/05/20 07:14:03;;;;;;;4.80;2.80;;;;;;;-144.78;100.00;64918.72;4974821;28;20067;-67
2022/05/20 07:17:28;;;;;;;6.57;2.85;;;;;;;-144.78;100.00;64918.72;4986809;28;20071;-66
2022/05/20 07:20:52;;;;;;;7.97;2.80;;;;;;;-144.78;100.00;64918.72;4924457;28;20036;-64
2022/05/20 07:24:16;;;;;;;8.82;2.85;;;;;;;-144.78;100.00;64918.72;4914999;28;20032;-65
2022/05/20 07:27:40;;;;;;;3.28;2.58;;;;;;;-144.78;100.00;64918.72;4924991;28;20028;-66
2022/05/20 07:31:06;;;;;;;5.18;2.92;;;;;;;-144.78;100.00;64918.72;4912552;28;20028;-66
2022/05/20 07:34:30;;;;;;;5.40;2.65;;;;;;;-144.78;100.00;64918.72;4936048;28;20029;-70
2022/05/20 07:37:54;;;;;;;7.45;2.67;;;;;;;-144.78;100.00;64918.72;4947550;28;20053;-68
2022/05/20 07:41:20;;;;;;;4.15;2.33;;;;;;;-144.78;100.00;64918.72;4952032;28;20073;-72
2022/05/20 07:44:44;;;;;;;4.38;2.50;;;;;;;-144.78;100.00;64918.72;4909808;28;20024;-73
2022/05/20 07:48:08;;;;;;;6.47;2.40;;;;;;;-144.78;100.00;64918.72;4925889;28;20478;-72
2022/05/20 07:51:39;;;;;;;5.75;2.63;;;;;;;-144.78;100.00;64918.72;4962298;28;20036;-70
2022/05/20 07:55:22;;;;;;;7.00;3.08;;;;;;;-144.78;100.00;64918.72;4916450;28;20026;-69
2022/05/20 07:59:06;;;;;;;6.65;2.75;;;;;;;-144.78;100.00;64918.72;4912322;28;20043;-64
2022/05/20 08:02:31;;;;;;;5.45;2.47;;;;;;;-144.78;100.00;64918.72;4910177;28;20044;-69
2022/05/20 08:05:56;;;;;;;6.47;2.75;;;;;;;-144.78;100.00;64918.72;4962601;28;20059;-69
2022/05/20 08:09:20;;;;;;;7.00;3.03;;;;;;;-144.78;100.00;64918.72;4940454;28;20039;-69
2022/05/20 08:12:45;;;;;;;6.47;2.92;;;;;;;-144.78;100.00;64918.72;4953291;28;20134;-70
2022/05/20 08:16:09;;;;;;;3.55;2.65;;;;;;;-144.78;100.00;64918.72;4911696;28;20029;-70
2022/05/20 08:19:33;;;;;;;3.63;2.20;;;;;;;-144.78;100.00;64918.72;4915361;28;20090;-70
2022/05/20 08:22:57;;;;;;;7.38;2.53;;;;;;;-144.78;100.00;64918.72;4910572;28;20043;-70
2022/05/20 08:26:22;;;;;;;4.65;2.45;;;;;;;-144.78;100.00;64918.72;4916138;28;20032;-70
2022/05/20 08:29:46;;;;;;;6.10;2.78;;;;;;;-144.78;100.00;64918.72;4955258;28;20489;-70
2022/05/20 08:33:11;;;;;;;5.80;3.00;;;;;;;-144.78;100.00;64918.72;4983435;28;20086;-70
2022/05/20 08:36:35;;;;;;;8.02;2.78;;;;;;;-144.78;100.00;64918.72;4972927;28;20032;-70
2022/05/20 08:40:00;;;;;;;10.68;2.90;;;;;;;-144.78;100.00;64918.72;4921490;28;20024;-71
2022/05/20 08:43:28;;;;;;;13.32;2.75;;;;;;;-144.78;100.00;64918.72;4912655;28;20032;-70
2022/05/20 08:47:06;;;;;;;6.90;2.67;;;;;;;-144.78;100.00;64918.72;4912103;28;20073;-70
2022/05/20 08:50:33;;;;;;;5.45;2.58;;;;;;;-144.78;100.00;64918.72;4969548;28;20525;-70
2022/05/20 08:53:57;;;;;;;6.15;2.65;;;;;;;-144.78;100.00;64918.72;4910566;28;20039;-69
2022/05/20 08:57:24;;;;;;;3.92;2.38;;;;;;;-144.78;100.00;64918.72;4953018;28;20106;-69
2022/05/20 09:00:49;;;;;;;7.70;2.80;;;;;;;-144.78;100.00;64918.72;4940193;28;20034;-70
2022/05/20 09:04:14;;;;;;;6.32;2.40;;;;;;;-144.78;100.00;64918.72;4913400;28;20141;-70
2022/05/20 09:07:59;;;;;;;7.80;2.55;;;;;;;-144.78;100.00;64918.72;4911705;28;20032;-69
2022/05/20 09:11:29;;;;;;;4.10;2.05;;;;;;;-144.78;100.00;64918.72;4905840;29;20032;-68
2022/05/20 09:19:22;;;;;;;8.15;2.60;;;;;;;-144.78;100.00;64918.72;4909521;28;20512;-72
2022/05/20 09:23:02;;;;;;;7.60;2.47;;;;;;;-144.78;100.00;64918.72;4919997;28;20020;-71
2022/05/20 09:26:32;;;;;;;6.85;2.50;;;;;;;-144.78;100.00;64918.72;4917036;28;20040;-70
2022/05/20 09:30:06;;;;;;;5.10;2.13;;;;;;;-144.78;100.00;64918.72;4903948;28;20059;-70
2022/05/20 09:34:08;;;;;;;3.78;2.15;;;;;;;-144.78;100.00;64918.72;4990299;28;20035;-71
2022/05/20 09:37:35;;;;;;;10.02;2.75;;;;;;;-144.78;100.00;64918.72;4962745;28;20050;-70
2022/05/20 09:41:18;;;;;;;6.25;2.40;;;;;;;-144.78;100.00;64918.72;4909074;28;20052;-69
2022/05/20 09:44:44;;;;;;;5.07;2.42;;;;;;;-144.78;100.00;64918.72;4907803;28;20051;-70
2022/05/20 09:48:22;;;;;;;7.03;2.57;;;;;;;-144.78;100.00;64918.72;4990623;28;20055;-73
2022/05/20 09:52:14;;;;;;;6.00;2.50;;;;;;;-144.78;100.00;64918.72;4927084;28;20032;-73
2022/05/20 09:55:44;;;;;;;5.22;2.42;;;;;;;-144.78;100.00;64918.72;4918452;28;20075;-71
2022/05/20 09:59:20;;;;;;;4.93;2.22;;;;;;;-144.78;100.00;64918.72;4978777;28;20027;-70
2022/05/20 10:02:56;;;;;;;5.67;1.93;;;;;;;-144.78;100.00;64918.72;4914976;28;20390;-63
2022/05/20 10:06:24;;;;;;;;;;;;;;;-144.78;100.00;64918.72;4928326;28;20363;-64
2022/05/20 10:10:15;;;;;;;4.82;2.28;;;;;;;-144.78;100.00;64918.72;4905625;28;19923;-62
2022/05/20 10:13:56;;;;;;;8.18;2.50;;;;;;;-144.78;100.00;64918.72;4905691;28;20044;-65
2022/05/20 10:17:44;;;;;;;4.95;2.17;;;;;;;-144.78;100.00;64918.72;4909770;28;20044;-65
2022/05/20 10:21:20;;;;;;;9.48;2.60;;;;;;;-144.78;100.00;64918.72;4955659;28;20522;-65
2022/05/20 10:24:54;;;;;;;5.85;2.13;;;;;;;-144.78;100.00;64918.72;4908336;28;20091;-65
2022/05/20 10:32:38;;;;;;;4.20;2.00;;;;;;;-144.78;100.00;64918.72;4950119;28;20063;-65
2022/05/20 10:36:24;;;;;;;4.47;2.40;;;;;;;-144.78;100.00;64918.72;4956421;28;20034;-65
2022/05/20 10:40:25;;;;;;;5.13;2.13;;;;;;;-144.78;100.00;64918.72;4903409;28;20032;-65
2022/05/20 10:52:03;;;;;;;3.30;1.95;;;;;;;-144.78;100.00;64918.72;4931520;28;20099;-66
2022/05/20 10:55:59;;;;;;;7.30;2.10;;;;;;;-144.78;100.00;64918.72;4921536;28;20862;-65
2022/05/20 10:59:42;;;;;;;3.63;1.95;;;;;;;-144.78;100.00;64918.72;4932105;28;20118;-66
2022/05/20 11:03:21;;;;;;;4.10;2.00;;;;;;;-144.78;100.00;64918.72;4961415;28;20178;-66
2022/05/20 11:06:57;;;;;;;5.72;2.35;;;;;;;-144.78;100.00;64918.72;4938596;28;20029;-65
2022/05/20 11:10:55;;;;;;;5.50;1.77;;;;;;;-144.78;100.00;64918.72;4907329;28;20052;-65
2022/05/20 11:14:27;;;;;;;5.10;2.22;;;;;;;-144.78;100.00;64918.72;4915189;28;20040;-66
2022/05/20 11:17:26;;;;;;;5.43;2.20;;;;;;;43.27;24.59;98899.53;5006076;28;20036;-65
2022/05/20 11:20:13;;;;;;;6.50;2.40;;;;;;;44.26;24.06;98882.50;4928421;28;20111;-67
2022/05/20 11:22:51;;;;;;;4.32;2.25;;;;;;;43.29;23.53;98865.75;4909636;28;20036;-67
2022/05/20 11:25:54;;;;;;;3.85;1.80;;;;;;;43.82;26.22;98858.63;4994826;28;20079;-65
2022/05/20 11:28:35;;;;;;;6.20;1.92;;;;;;;43.74;23.82;98848.56;4919564;28;20043;-65
2022/05/20 11:31:10;;;;;;;7.70;2.65;;;;;;;43.17;24.23;98843.50;4909112;29;20051;-65
2022/05/20 11:33:50;;;;;;;3.47;2.00;;;;;;;42.17;26.23;98845.84;4908009;28;20093;-67
2022/05/20 11:36:36;;;;;;;4.72;2.00;;;;;;;41.14;27.39;98833.66;4958898;28;20452;-65
2022/05/20 11:39:39;;;;;;;5.30;2.00;;;;;;;39.93;28.78;98833.50;4918319;28;20118;-64
2022/05/20 11:42:25;;;;;;;4.38;2.10;;;;;;;40.52;30.86;98834.03;4939280;28;20491;-69
2022/05/20 11:45:14;;;;;;;6.15;2.17;;;;;;;42.08;27.84;98802.03;4989004;28;20037;-68
2022/05/20 11:47:51;;;;;;;6.00;2.20;;;;;;;43.13;25.08;98795.09;4910541;28;20122;-66
2022/05/20 11:50:23;;;;;;;6.05;2.00;;;;;;;43.91;24.01;98776.22;4908456;28;20103;-72
2022/05/20 11:53:23;;;;;;;5.45;2.13;;;;;;;43.82;25.15;98775.16;4903431;28;20070;-72
2022/05/20 11:56:02;;;;;;;4.07;2.00;;;;;;;42.52;26.58;98781.44;4914835;28;20107;-72
2022/05/20 11:58:40;;;;;;;3.22;1.90;;;;;;;43.15;25.13;98767.00;4940941;28;20031;-73
2022/05/20 12:01:07;;;;;;;3.70;2.17;;;;;;;42.62;25.30;98757.75;4949610;28;20359;-72
2022/05/20 12:04:07;;;;;;;7.38;2.60;;;;;;;43.15;25.32;98744.22;4903263;28;20040;-72
2022/05/20 12:06:23;;;;;;;4.47;2.25;;;;;;;43.20;25.79;98740.13;4953289;28;20120;-73
2022/05/20 12:09:01;;;;;;;6.55;2.35;;;;;;;42.93;26.55;98734.31;4976293;28;20030;-74
2022/05/20 12:11:38;;;;;;;4.97;1.98;;;;;;;41.17;29.14;98736.31;4913592;29;20033;-72
2022/05/20 12:14:05;;;;;;;6.93;2.22;;;;;;;38.79;31.51;98727.75;4948868;28;20043;-72
2022/05/20 12:16:32;;;;;;;3.17;2.10;;;;;;;40.34;29.41;98728.31;4985681;28;20396;-73
2022/05/20 12:24:53;;;;;;;7.47;2.28;;;;;;;40.75;28.61;98708.84;4952004;28;20603;-72
2022/05/20 12:27:24;;;;;;;2.93;1.90;;;;;;;41.96;28.07;98707.53;4909774;29;20029;-71
2022/05/20 12:30:17;;;;;;;3.30;2.08;;;;;;;42.32;27.47;98706.44;4979545;28;20705;-72
2022/05/20 12:32:46;;;;;;;8.23;2.10;;;;;;;42.46;26.83;98683.56;4972710;28;20032;-72
2022/05/20 12:35:25;;;;;;;5.20;2.47;;;;;;;41.20;26.47;98688.47;4952771;28;20484;-71
2022/05/20 12:37:53;;;;;;;4.78;2.20;;;;;;;41.76;27.22;98689.38;4957173;28;20049;-71
2022/05/20 12:40:40;;;;;;;2.78;1.70;;;;;;;42.58;26.46;98685.09;4915646;28;20032;-71
2022/05/20 12:43:09;;;;;;;4.00;2.43;;;;;;;42.28;26.86;98660.94;4910621;28;20067;-71
2022/05/20 12:45:47;;;;;;;5.65;2.42;;;;;;;42.69;25.62;98646.72;4908161;28;20020;-71
2022/05/20 12:48:13;;;;;;;4.72;2.10;;;;;;;42.91;24.56;98663.56;4936636;28;20028;-71
2022/05/20 12:50:40;;;;;;;3.10;1.95;;;;;;;41.64;25.51;98661.47;4952056;28;20935;-71
2022/05/20 12:53:12;;;;;;;6.60;2.22;;;;;;;41.36;25.64;98652.66;4908488;28;20048;-71
2022/05/20 12:55:39;;;;;;;7.00;2.28;;;;;;;42.41;24.59;98642.16;4977433;28;20106;-71
2022/05/20 12:58:11;;;;;;;8.88;2.28;;;;;;;41.73;25.65;98637.03;4912219;28;20043;-71
2022/05/20 13:00:58;;;;;;;5.70;2.05;;;;;;;42.29;25.11;98628.47;4899349;28;20084;-71
2022/05/20 13:03:45;;;;;;;5.43;2.40;;;;;;;41.25;26.40;98634.88;4984660;28;20437;-71
2022/05/20 13:06:20;;;;;;;;;;;;;;;41.42;26.23;98627.47;4912985;28;20501;-71
2022/05/20 13:08:52;;;;;;;4.30;2.22;;;;;;;41.77;24.35;98617.94;4975261;28;19959;-71
2022/05/20 13:11:19;;;;;;;5.35;2.40;;;;;;;40.37;24.68;98611.25;4904146;29;20043;-71
2022/05/20 13:13:49;;;;;;;7.15;2.42;;;;;;;40.46;25.34;98603.97;4906200;28;20044;-72
2022/05/20 13:16:15;;;;;;;6.18;1.95;;;;;;;40.63;25.25;98592.97;4949943;28;20491;-71
2022/05/20 13:18:43;;;;;;;3.60;1.83;;;;;;;40.97;24.98;98570.53;4943353;28;20063;-71
2022/05/20 13:21:19;;;;;;;5.95;2.30;;;;;;;40.50;24.78;98584.09;4918793;28;20536;-71
2022/05/20 13:23:50;;;;;;;7.22;2.20;;;;;;;40.82;25.25;98569.00;4957878;28;20054;-71
2022/05/20 13:26:20;;;;;;;6.97;2.22;;;;;;;40.03;25.36;98589.03;4974044;28;20136;-71
2022/05/20 13:28:46;;;;;;;9.93;2.50;;;;;;;40.40;25.67;98567.91;4952462;28;20032;-72
2022/05/20 13:31:18;;;;;;;5.80;2.25;;;;;;;39.82;25.59;98564.34;4954679;28;20032;-71
2022/05/20 13:33:44;;;;;;;6.32;2.47;;;;;;;40.44;25.71;98554.56;4933751;28;20039;-71
2022/05/20 13:36:17;;;;;;;5.78;2.47;;;;;;;39.03;26.67;98555.75;4952291;28;20040;-70
2022/05/20 13:38:47;;;;;;;6.80;2.50;;;;;;;37.76;29.03;98560.28;4911914;28;20028;-72
2022/05/20 13:41:13;;;;;;;7.43;2.42;;;;;;;38.42;27.68;98557.50;4922273;28;20036;-70
2022/05/20 13:43:40;;;;;;;6.78;2.58;;;;;;;38.90;28.28;98558.13;4966838;28;20032;-70
2022/05/20 13:49:13;;;;;;;3.55;2.38;;;;;;;38.76;28.36;98556.03;4907327;28;20722;-71
2022/05/20 13:51:41;;;;;;;7.75;2.38;;;;;;;39.96;28.19;98549.38;4910436;29;20110;-70
2022/05/20 13:54:11;;;;;;;7.13;2.35;;;;;;;39.93;28.04;98553.00;4906789;28;20414;-71
2022/05/20 13:56:40;;;;;;;4.15;2.30;;;;;;;41.34;26.17;98543.56;4905862;29;20506;-71
2022/05/20 13:59:17;;;;;;;7.78;2.22;;;;;;;41.50;27.37;98549.56;4909362;28;20055;-71
2022/05/20 14:01:45;;;;;;;3.63;2.13;;;;;;;41.47;28.22;98556.03;4902648;28;20028;-70
2022/05/20 14:04:10;;;;;;;;;;;;;;;41.21;28.14;98556.66;4908523;28;20036;-71
2022/05/20 14:06:37;;;;;;;7.22;2.35;;;;;;;40.89;28.66;98558.41;4954103;28;20006;-71
2022/05/20 14:09:03;;;;;;;6.40;2.17;;;;;;;41.05;28.45;98543.72;4910082;29;20106;-71
2022/05/20 14:11:52;;;;;;;5.32;2.22;;;;;;;40.07;29.77;98545.31;4909492;28;20025;-71
2022/05/20 14:14:21;;;;;;;8.68;2.85;;;;;;;39.51;30.65;98540.47;4959394;28;20036;-71
2022/05/20 14:16:49;;;;;;;5.80;2.05;;;;;;;38.28;34.00;98521.47;4943426;28;20032;-70
2022/05/20 14:19:29;;;;;;;3.97;2.10;;;;;;;37.13;35.21;98525.41;4990198;28;20022;-70
2022/05/20 14:22:05;;;;;;;3.95;2.50;;;;;;;36.23;38.17;98527.13;4903036;28;20063;-70
2022/05/20 14:24:52;;;;;;;4.65;2.42;;;;;;;35.47;41.89;98494.16;4950771;28;20028;-70
2022/05/20 14:27:41;;;;;;;7.53;2.45;;;;;;;36.08;40.23;98516.84;4929842;28;20038;-70
2022/05/20 14:30:21;;;;;;;12.82;3.10;;;;;;;35.40;41.11;98519.38;4908187;28;20728;-71
2022/05/20 14:32:52;;;;;;;4.72;3.03;;;;;;;34.89;43.22;98533.69;4951194;28;20032;-71
2022/05/20 14:35:22;;;;;;;7.65;2.85;;;;;;;34.09;44.10;98544.44;4922355;28;20537;-70
2022/05/20 14:37:48;;;;;;;9.00;2.88;;;;;;;33.53;45.34;98579.09;4993254;28;20043;-71
2022/05/20 14:40:14;;;;;;;5.93;2.97;;;;;;;33.00;47.20;98574.88;4928338;28;20110;-71
2022/05/20 14:42:52;;;;;;;6.70;2.70;;;;;;;32.42;52.36;98601.19;4928789;28;20040;-70
2022/05/20 14:45:38;;;;;;;8.65;2.90;;;;;;;31.37;54.64;98609.31;4955936;28;20038;-71
2022/05/20 14:48:17;;;;;;;9.02;3.08;;;;;;;30.41;53.37;98606.56;4909226;28;20036;-70
2022/05/20 14:50:44;;;;;;;8.88;3.03;;;;;;;29.75;57.05;98607.91;4918315;28;20040;-70
2022/05/20 14:53:39;;;;;;;10.98;3.22;;;;;;;29.33;57.91;98635.56;4975261;28;20033;-70
2022/05/20 14:56:25;;;;;;;9.45;2.80;;;;;;;29.03;60.92;98632.66;4990833;28;20123;-70
2022/05/20 14:58:58;;;;;;;7.13;3.00;;;;;;;28.74;66.82;98640.84;4902628;28;20195;-70
2022/05/20 15:01:31;;;;;;;6.30;2.90;;;;;;;28.44;68.13;98649.00;4922231;28;20028;-70
2022/05/20 15:03:57;;;;;;;6.75;2.75;;;;;;;28.39;65.25;98675.00;4976107;28;20428;-70
2022/05/20 15:06:26;;;;;;;5.88;3.25;;;;;;;28.21;65.24;98684.44;4914161;28;20106;-70
2022/05/20 15:08:51;;;;;;;;;;;;;;;28.00;64.94;98689.78;4976688;28;20028;-69
2022/05/20 15:11:21;;;;;;;8.85;4.05;;;;;;;27.88;73.62;98659.00;4954131;28;19917;-70
2022/05/20 15:13:47;;;;;;;11.43;3.03;;;;;;;27.56;72.02;98624.78;4949082;28;20070;-70
2022/05/20 15:16:12;;;;;;;13.27;2.90;;;;;;;27.40;73.08;98604.94;4952548;28;20038;-70
2022/05/20 15:18:38;;;;;;;16.48;3.25;;;;;;;27.11;72.09;98513.75;4984486;28;20032;-69
2022/05/20 15:21:08;;;;;;;10.52;3.28;;;;;;;26.96;71.94;98523.34;4928738;28;20063;-70
2022/05/20 15:23:38;;;;;;;9.95;2.97;;;;;;;27.43;68.93;98559.03;4943692;28;20027;-70
2022/05/20 15:26:08;;;;;;;12.27;2.80;;;;;;;28.16;67.19;98563.03;4990494;28;20400;-70
2022/05/20 15:28:49;;;;;;;9.60;2.88;;;;;;;28.78;63.64;98566.66;4963776;28;20491;-70